Beenleigh, Australia
Current Conditions -  °F | °C
As of 7:30 AM on Saturday 01 Nov 2014 (Local Time) from YBBN Reporting Station
Scattered Clouds Scattered Clouds  
Wind Chill: 75°   Ceiling: Unl
Heat Index: 75°   Visibility: 6mi
Dew Point: 66°   Wind: 15mph
Humidity: 73%   Direction: 350°N
Pressure: 29.97"   Gusts: NA
Location:  27.72°S, 153.2°E
Report Text: YBBN 312130Z 35013KT 9999 FEW020 SCT180 24/19 Q1015
Loading
Personal Weather Stations






























Interactive Weather Map
Tropical Storm Tracking
New forecast layout! Learn more

10-Day Weather Forecast

Advertisements
Track Severe Weather on mobile